KCMH/CMH METAR and TAF weather

Enter ICAO airport designator
Station Type Date Time Source
KCMH METAR 2020/11/25 21:51 UTC NOAA

KCMH 252151Z 14010KT 10SM OVC029 11/08 A2985 RMK AO2 SLP110 T01060083


Station Type Date Time Source
KCMH Decoded METAR 2020/11/25 21:51 UTC NOAA

PORT COLUMBUS INTERNATIONAL AIRPORT, OH, United States (KCMH) 40-00N 82-53W 247M
Nov 25, 2020 - 04:51 PM EST / 2020.11.25 2151 UTC
Wind: from the SE (140 degrees) at 12 MPH (10 KT):0
Visibility: 10 mile(s):0
Sky conditions: overcast
Temperature: 51.1 F (10.6 C)
Dew Point: 46.9 F (8.3 C)
Relative Humidity: 85%
Pressure (altimeter): 29.85 in. Hg (1010 hPa)
ob: KCMH 252151Z 14010KT 10SM OVC029 11/08 A2985 RMK AO2 SLP110 T01060083
cycle: 22

Station Type Date Time Source
KCMH TAF 2020/11/25 21:54 UTC NOAA

TAF
AMD KCMH 252051Z 2521/2618 16011G16KT P6SM -RA OVC026 WS020/20040KT
FM260100 17010G18KT 6SM -SHRA BR OVC020 WS020/20040KT
FM260600 20014G28KT P6SM OVC015
FM261300 23011G20KT P6SM OVC015

Example: see airport list